CheckWX is a tool to help pilots better visualize weather data.  It is not intended as a substitute for an official pre-flight weather briefing.

09:27:31 UTC

VOTR TAF
Tiruchirapally Civil Airport
Tiruchirappally, India
TAF VOTR 200500Z 2006/2112 09010KT 6000 FEW018 SCT100 BECMG 2021/2022 VRB02KT 4000 BR BECMG 2103/2104 09010KT 6000

Feb-20@
06:00 UTC

Feb-20 @ 06:00 UTC

Feb-20@
21:00 UTC

Feb-20 @ 21:00 UTC

TAF VOTR 200500Z 2006/2112 09010KT 6000 FEW018 SCT100
Wind
  • 090° at 10 KTS
Visibility
6,003 meters
Cloud Levels
  • Few at 1,800' AGL
  • Scattered at 10,000' AGL

Feb-20@
21:00 UTC

Feb-20 @ 21:00 UTC

Feb-21@
03:00 UTC

Feb-21 @ 03:00 UTC

BECMG 2021/2022 VRB02KT 4000 BR

Becoming

BecomingConditions expected by Wed, Feb 20, 2019 @ 22:00 UTC

Wind
  • Variable at 2 KTS
Visibility
4,007 meters
Conditions
Mist
Cloud Levels
  • Few at 1,800' AGL
  • Scattered at 10,000' AGL

Feb-21@
03:00 UTC

Feb-21 @ 03:00 UTC

Feb-21@
12:00 UTC

Feb-21 @ 12:00 UTC

BECMG 2103/2104 09010KT 6000

Becoming

BecomingConditions expected by Thu, Feb 21, 2019 @ 04:00 UTC

Wind
  • 090° at 10 KTS
Visibility
6,003 meters
Conditions
Mist
Cloud Levels
  • Few at 1,800' AGL
  • Scattered at 10,000' AGL